ADDS METAR Data INFO
IDs: Format: Raw Decoded Include TAF

Data at: 0055 UTC 22 Oct 2017

KBTA 220035Z AUTO 32008KT 10SM CLR 13/05 A2988 RMK AO2 LTG DSNT E T01270053
KBTA 220015Z AUTO 32009G14KT 10SM CLR 13/06 A2988 RMK AO2 LTG DSNT E T01300055
KBTA 212355Z AUTO 31009KT 10SM SCT050 13/06 A2988 RMK AO2 LTG DSNT E T01330056 10231 20133
KBTA 212335Z AUTO 31007G14KT 10SM OVC050 14/06 A2987 RMK AO2 LTG DSNT E T01390058
KBTA 212315Z AUTO 32010G19KT 10SM OVC050 14/06 A2986 RMK AO2 LTG DSNT SE T01410056
KBTA 212255Z AUTO 32014G23KT 10SM OVC050 14/06 A2985 RMK AO2 LTG DSNT NE THRU SE T01430057
KBTA 212235Z AUTO 32018G24KT 10SM BKN048 OVC060 15/06 A2983 RMK AO2 LTG DSNT E T01470058
KBTA 212215Z AUTO 31015G22KT 10SM BKN046 OVC060 15/06 A2982 RMK AO2 LTG DSNT E T01510061
KBTA 212155Z AUTO 32017G22KT 10SM BKN060 OVC070 16/07 A2980 RMK AO2 LTG DSNT E AND SE T01560066
KBTA 212135Z AUTO 32015G27KT 10SM BKN065 BKN070 15/07 A2979 RMK AO2 LTG DSNT SE T01540068
KBTA 212115Z AUTO 31022G27KT 10SM VCTS SCT065 16/07 A2977 RMK AO2 LTG DSNT SE T01580072
KBTA 212055Z AUTO 30016G27KT 10SM SCT060 17/08 A2976 RMK AO2 LTG DSNT E AND S T01650078
KBTA 212035Z AUTO 30017G25KT 10SM SCT046 SCT050 17/08 A2974 RMK AO2 LTG DSNT E AND SE T01700083
KBTA 212015Z AUTO 29014G20KT 10SM SCT038 BKN046 BKN080 18/10 A2972 RMK AO2 LTG DSNT NE AND E T01790100
KBTA 211955Z AUTO 31014G21KT 10SM SCT029 BKN038 OVC050 18/12 A2969 RMK AO2 LTG DSNT NE AND SE T01780119
KBTA 211935Z AUTO 26016G22KT 210V300 10SM TS SCT027 BKN040 OVC050 23/17 A2968 RMK AO2 LTG DSNT NE THRU S T02280174
KBTA 211915Z AUTO 21010KT 10SM -RA BKN029 OVC035 22/18 A2966 RMK AO2 LTG DSNT NE SW AND NW T02230178
KBTA 211855Z AUTO 18012G21KT 10SM OVC031 23/17 A2965 RMK AO2 T02300172
KBTA 211835Z AUTO 17013KT 10SM BKN033 OVC040 23/17 A2966 RMK AO2 T02290172
KBTA 211815Z AUTO 17014G19KT 10SM SCT030 BKN038 OVC060 23/17 A2966 RMK AO2 T02250171
KBTA 211755Z AUTO 17014G19KT 10SM SCT028 BKN035 OVC060 22/17 A2966 RMK AO2 T02220171 10222 20188
KBTA 211735Z AUTO 18015G21KT 10SM BKN028 OVC032 22/17 A2966 RMK AO2 T02200171
KBTA 211715Z AUTO 17011G24KT 10SM OVC029 22/17 A2966 RMK AO2 T02210171
KBTA 211655Z AUTO 17017G21KT 10SM OVC029 22/17 A2965 RMK AO2 T02190171
KBTA 211635Z AUTO 17014G24KT 10SM SCT022 BKN029 OVC034 22/17 A2965 RMK AO2 T02170171
KBTA 211615Z AUTO 17018G26KT 10SM SCT021 OVC028 21/17 A2965 RMK AO2 T02130170
KBTA 211555Z AUTO 17019G27KT 10SM OVC027 21/17 A2964 RMK AO2 T02120170
KBTA 211535Z AUTO 17023G27KT 10SM SCT019 BKN025 OVC046 21/17 A2964 RMK AO2 T02100170
KBTA 211515Z AUTO 17019G27KT 10SM SCT019 SCT025 OVC046 21/17 A2964 RMK AO2 T02120172
KBTA 211455Z AUTO 16018G22KT 10SM SCT027 SCT032 OVC046 20/17 A2963 RMK AO2 T02020170
KBTA 211435Z AUTO 16017G24KT 10SM BKN027 BKN037 OVC044 20/17 A2964 RMK AO2 T01970168
KBTA 211415Z AUTO 16016G21KT 10SM BKN023 BKN029 OVC038 20/17 A2964 RMK AO2 T01950168
KBTA 211355Z AUTO 16017G22KT 10SM OVC023 19/17 A2964 RMK AO2 T01920166
KBTA 211335Z AUTO 17016G20KT 10SM OVC021 19/17 A2965 RMK AO2 T01920166
KBTA 211315Z AUTO 16015G22KT 10SM OVC021 19/17 A2963 RMK AO2 T01910166
KBTA 211255Z AUTO 16014G21KT 10SM OVC021 19/17 A2963 RMK AO2 T01900167
KBTA 211235Z AUTO 16015KT 10SM OVC019 19/17 A2963 RMK AO2 T01900167
KBTA 211215Z AUTO 16014G19KT 10SM OVC019 19/17 A2962 RMK AO2 T01900168
KBTA 211155Z AUTO 16011KT 10SM OVC019 19/17 A2962 RMK AO2 60006 70006 T01880168 10192 20182
KBTA 211135Z AUTO 16013G18KT 10SM OVC019 19/17 A2962 RMK AO2 LTG DSNT NE T01870167
KBTA 211115Z AUTO 16012G20KT 10SM OVC019 19/17 A2962 RMK AO2 LTG DSNT NE T01870167
KBTA 211055Z AUTO 16017G23KT 10SM OVC019 19/17 A2961 RMK AO2 P0005 T01870166
KBTA 211035Z AUTO 17016G21KT 10SM OVC017 19/17 A2961 RMK AO2 LTG DSNT NE AND E P0005 T01850165
KBTA 211015Z AUTO 16016KT 10SM -TSRA SCT015 OVC021 18/17 A2961 RMK AO2 LTG DSNT ALQS P0005 T01820165
KBTA 210955Z AUTO 16014G23KT 10SM -VCTSRA OVC019 19/16 A2961 RMK AO2 LTG DSNT ALQS T01870162
KBTA 210935Z AUTO 16017G25KT 10SM OVC019 19/16 A2961 RMK AO2 T01910160
KBTA 210915Z AUTO 17021G26KT 10SM VCTS OVC019 19/16 A2961 RMK AO2 LTG DSNT N AND NE T01910160
KBTA 210855Z AUTO 16015G26KT 10SM OVC019 19/16 A2961 RMK AO2 LTG DSNT E AND S 60001 T01910160
KBTA 210835Z AUTO 17020G28KT 10SM OVC021 19/16 A2962 RMK AO2 LTG DSNT E AND SE T01910159
KBTA 210815Z AUTO 16019G29KT 10SM OVC024 19/16 A2963 RMK AO2 LTG DSNT ALQS T01910157
KBTA 210755Z AUTO 17020G25KT 10SM OVC026 19/15 A2964 RMK AO2 LTG DSNT E AND SE T01870153
KBTA 210735Z AUTO 16016G23KT 10SM OVC026 19/15 A2965 RMK AO2 LTG DSNT NE THRU SE T01860150
KBTA 210715Z AUTO 16016G22KT 10SM OVC028 19/15 A2965 RMK AO2 LTG DSNT E AND SE T01850149
KBTA 210655Z AUTO 16015G18KT 10SM BKN027 OVC031 19/15 A2965 RMK AO2 LTG DSNT NE THRU S P0001 T01850148
KBTA 210635Z AUTO 15018G26KT 7SM -RA SCT025 BKN031 OVC110 18/15 A2965 RMK AO2 LTG DSNT NE THRU S P0001 T01820149
KBTA 210615Z AUTO 15016G24KT 10SM SCT029 BKN110 19/14 A2966 RMK AO2 LTG DSNT S T01900143
KBTA 210555Z AUTO 16014G21KT 10SM SCT029 19/14 A2967 RMK AO2 T01900142 10225 20190 402530136
KBTA 210535Z AUTO 15016G24KT 10SM SCT029 19/14 A2968 RMK AO2 T01900142
KBTA 210515Z AUTO 16017G25KT 10SM CLR 19/14 A2969 RMK AO2 T01900142
KBTA 210455Z AUTO 16019G24KT 10SM SCT041 19/14 A2969 RMK AO2 T01920141
KBTA 210435Z AUTO 16015G24KT 10SM SCT045 20/14 A2970 RMK AO2 T01950141
KBTA 210415Z AUTO 16018G27KT 10SM CLR 20/14 A2970 RMK AO2 T01970141
KBTA 210355Z AUTO 16015G29KT 10SM CLR 20/14 A2970 RMK AO2 T01990140
KBTA 210335Z AUTO 16020G27KT 10SM CLR 20/14 A2971 RMK AO2 T02000140
KBTA 210315Z AUTO 16019G27KT 10SM CLR 20/14 A2970 RMK AO2 T02040140
KBTA 210255Z AUTO 16023G32KT 10SM CLR 21/14 A2970 RMK AO2 T02060141
KBTA 210235Z AUTO 16019G31KT 10SM SCT065 21/14 A2970 RMK AO2 T02080142
KBTA 210220Z AUTO 16021G31KT 10SM OVC065 21/15 A2971 RMK AO2 T02100145
KBTA 210155Z AUTO 16023G29KT 10SM CLR 21/15 A2971 RMK AO2 T02110145
KBTA 210135Z AUTO 16017G24KT 10SM CLR 21/15 A2970 RMK AO2 T02130145
KBTA 210115Z AUTO 16016G21KT 10SM CLR 22/15 A2970 RMK AO2 T02170145
KBTA 210055Z AUTO 16014G23KT 10SM CLR 22/15 A2970 RMK AO2 T02200145
KBTA 210035Z AUTO 16017G26KT 10SM CLR 22/15 A2969 RMK AO2 T02220146
KBTA 210015Z AUTO 16017G24KT 10SM CLR 22/15 A2969 RMK AO2 T02220148
KBTA 202355Z AUTO 16015G26KT 10SM CLR 23/15 A2969 RMK AO2 T02250149 10253 20225
KBTA 202335Z AUTO 16017G26KT 10SM CLR 23/15 A2970 RMK AO2 T02260150
KBTA 202315Z AUTO 16020G27KT 10SM SCT050 23/15 A2970 RMK AO2 T02300150
KBTA 202255Z AUTO 16022G29KT 10SM SCT047 BKN050 23/15 A2971 RMK AO2 T02330148
KBTA 202235Z AUTO 16019G29KT 10SM BKN048 BKN090 BKN110 24/15 A2971 RMK AO2 T02350147
KBTA 202215Z AUTO 16023G33KT 10SM BKN047 BKN060 BKN090 24/15 A2972 RMK AO2 T02360145
KBTA 202155Z AUTO 16022G28KT 10SM BKN044 OVC050 24/15 A2972 RMK AO2 T02400148
KBTA 202135Z AUTO 16023G30KT 5SM HZ BKN046 BKN055 25/15 A2972 RMK AO2 T02520147
KBTA 202115Z AUTO 16022G27KT 10SM BKN044 25/15 A2972 RMK AO2 T02490146
KBTA 202055Z AUTO 17025G31KT 7SM SCT042 SCT050 25/15 A2972 RMK AO2 T02480145
KBTA 202035Z AUTO 16014G26KT 10SM SCT042 25/15 A2973 RMK AO2 T02450148
KBTA 202015Z AUTO 17019G24KT 7SM CLR 23/15 A2975 RMK AO2 T02330147
KBTA 201955Z AUTO 16017G25KT 10SM SCT039 23/15 A2976 RMK AO2 T02310145
KBTA 201935Z AUTO 16023G30KT 10SM SCT041 25/14 A2977 RMK AO2 T02450144
KBTA 201915Z AUTO 17020G27KT 10SM SCT041 SCT048 24/14 A2978 RMK AO2 T02390142
KBTA 201855Z AUTO 17018G25KT 10SM CLR 25/14 A2979 RMK AO2 T02490143
KBTA 201835Z AUTO 16018G27KT 10SM CLR 24/14 A2980 RMK AO2 T02420141
KBTA 201815Z AUTO 17014G27KT 10SM CLR 24/14 A2981 RMK AO2 T02370139
KBTA 201755Z AUTO 18021G28KT 10SM CLR 24/14 A2983 RMK AO2 T02360137 10236 20136
KBTA 201735Z AUTO 16015G28KT 10SM CLR 23/14 A2984 RMK AO2 T02280137
KBTA 201715Z AUTO 16019G24KT 10SM CLR 22/13 A2985 RMK AO2 T02170134
KBTA 201655Z AUTO 16021G28KT 10SM CLR 21/13 A2986 RMK AO2 T02130132
KBTA 201635Z AUTO 17018G23KT 10SM CLR 21/13 A2987 RMK AO2 T02060131
KBTA 201615Z AUTO 17018G24KT 10SM CLR 20/13 A2988 RMK AO2 T01950127
KBTA 201555Z AUTO 17018G25KT 10SM CLR 19/13 A2989 RMK AO2 T01900126
KBTA 201535Z AUTO 17014G23KT 10SM CLR 19/13 A2991 RMK AO2 T01860125
KBTA 201515Z AUTO 16017G24KT 10SM CLR 18/12 A2991 RMK AO2 T01820123
KBTA 201455Z AUTO 17015G20KT 10SM CLR 18/12 A2991 RMK AO2 T01750121
KBTA 201435Z AUTO 17014G20KT 10SM CLR 17/12 A2992 RMK AO2 T01650120
KBTA 201415Z AUTO 17013G17KT 10SM CLR 16/12 A2993 RMK AO2 T01570117
KBTA 201355Z AUTO 17013KT 10SM CLR 15/12 A2993 RMK AO2 T01510115
KBTA 201335Z AUTO 16009G15KT 10SM CLR 15/12 A2993 RMK AO2 T01470115
KBTA 201315Z AUTO 16011G14KT 10SM CLR 15/12 A2993 RMK AO2 T01450115